Página principal
METAR-TAF:

METAR-TAF

Aeroportos :

Barter Island, Alasca, Estados Unidos

latitude: 70-08-02N, longitude: 143-34-37W, altura: 2 m

Observação actual do tempo

O boletim foi feito há 1 hora e 11 minutos, às 16:03 UTC
Vento 10 kt de nordeste
Temperatura 1°C
Humidade 86%
Pressão 1019 hPa
Visibilidade: 16.1 km
Nuvens dispersasa uma altura de 200 ft

METAR: PABA 191603Z 05010KT 10SM SCT002 01/M01 A3010 RMK AO2 FZRANO

Hora: 09:14 (17:14 UTC)


TAF: em falta

Observações e previsões do tempo de mais de 4000 aeroportos (mensagens METAR e TAF).

As estações disponíveis são os pontos amarelos e vermelhos sobre o mapa.

Mova o rato sobre o mapa para ver o nome da estação.

Depois clique no ponto para visualizar as observações e previsões meteorológicas.

Para alterar o mapa : clique nos botões verdes com uma cruz preta para aumentar o zoom; no botão verde com uma pitada de zoom; ou nas setas verdes para mapas adjacentes.


METAR-TAF: